sensor_id;sensor_type;location;lat;lon;timestamp;P1;durP1;ratioP1;P2;durP2;ratioP2
61523;SDS011;47393;38.758;-9.164;2023-03-04T00:00:19;12.38;;;4.28;;
61523;SDS011;47393;38.758;-9.164;2023-03-04T00:02:20;15.50;;;4.30;;
61523;SDS011;47393;38.758;-9.164;2023-03-04T00:04:20;6.97;;;3.72;;
61523;SDS011;47393;38.758;-9.164;2023-03-04T00:06:21;16.90;;;4.50;;
61523;SDS011;47393;38.758;-9.164;2023-03-04T00:08:23;8.68;;;4.43;;
61523;SDS011;47393;38.758;-9.164;2023-03-04T00:10:45;4.80;;;4.30;;
61523;SDS011;47393;38.758;-9.164;2023-03-04T00:12:45;17.27;;;5.10;;
61523;SDS011;47393;38.758;-9.164;2023-03-04T00:14:49;6.53;;;4.53;;
61523;SDS011;47393;38.758;-9.164;2023-03-04T00:16:51;9.02;;;3.97;;
61523;SDS011;47393;38.758;-9.164;2023-03-04T00:18:52;9.15;;;4.45;;
61523;SDS011;47393;38.758;-9.164;2023-03-04T00:20:53;12.02;;;4.50;;
61523;SDS011;47393;38.758;-9.164;2023-03-04T00:22:54;13.68;;;4.45;;
61523;SDS011;47393;38.758;-9.164;2023-03-04T00:24:55;10.23;;;4.93;;
61523;SDS011;47393;38.758;-9.164;2023-03-04T00:26:56;8.20;;;4.57;;
61523;SDS011;47393;38.758;-9.164;2023-03-04T00:28:57;12.13;;;4.43;;
61523;SDS011;47393;38.758;-9.164;2023-03-04T00:30:58;14.35;;;4.90;;
61523;SDS011;47393;38.758;-9.164;2023-03-04T00:32:59;14.55;;;4.75;;
61523;SDS011;47393;38.758;-9.164;2023-03-04T00:35:06;9.40;;;4.82;;
61523;SDS011;47393;38.758;-9.164;2023-03-04T00:37:07;5.85;;;4.63;;
61523;SDS011;47393;38.758;-9.164;2023-03-04T00:39:15;5.82;;;4.68;;
61523;SDS011;47393;38.758;-9.164;2023-03-04T00:41:17;9.23;;;4.90;;
61523;SDS011;47393;38.758;-9.164;2023-03-04T00:43:24;8.13;;;5.22;;
61523;SDS011;47393;38.758;-9.164;2023-03-04T00:45:25;7.63;;;4.90;;
61523;SDS011;47393;38.758;-9.164;2023-03-04T00:47:26;19.35;;;4.88;;
61523;SDS011;47393;38.758;-9.164;2023-03-04T00:49:28;7.90;;;4.70;;
61523;SDS011;47393;38.758;-9.164;2023-03-04T00:51:35;8.90;;;4.85;;
61523;SDS011;47393;38.758;-9.164;2023-03-04T00:54:13;14.80;;;4.88;;
61523;SDS011;47393;38.758;-9.164;2023-03-04T00:56:25;8.82;;;5.30;;
61523;SDS011;47393;38.758;-9.164;2023-03-04T00:58:35;6.97;;;4.28;;
61523;SDS011;47393;38.758;-9.164;2023-03-04T01:00:47;4.93;;;4.53;;
61523;SDS011;47393;38.758;-9.164;2023-03-04T01:02:49;17.13;;;5.13;;
61523;SDS011;47393;38.758;-9.164;2023-03-04T01:04:50;5.95;;;4.28;;
61523;SDS011;47393;38.758;-9.164;2023-03-04T01:06:51;7.03;;;4.20;;
61523;SDS011;47393;38.758;-9.164;2023-03-04T01:08:52;4.72;;;4.30;;
61523;SDS011;47393;38.758;-9.164;2023-03-04T01:10:53;5.57;;;4.03;;
61523;SDS011;47393;38.758;-9.164;2023-03-04T01:12:55;9.40;;;4.78;;
61523;SDS011;47393;38.758;-9.164;2023-03-04T01:14:56;5.78;;;3.75;;
61523;SDS011;47393;38.758;-9.164;2023-03-04T01:16:56;4.90;;;4.05;;
61523;SDS011;47393;38.758;-9.164;2023-03-04T01:18:57;4.97;;;4.35;;
61523;SDS011;47393;38.758;-9.164;2023-03-04T01:20:58;5.88;;;4.72;;
61523;SDS011;47393;38.758;-9.164;2023-03-04T01:22:59;6.72;;;4.38;;
61523;SDS011;47393;38.758;-9.164;2023-03-04T01:25:04;8.90;;;5.20;;
61523;SDS011;47393;38.758;-9.164;2023-03-04T01:27:12;8.85;;;4.72;;
61523;SDS011;47393;38.758;-9.164;2023-03-04T01:29:14;11.02;;;5.28;;
61523;SDS011;47393;38.758;-9.164;2023-03-04T01:31:15;9.00;;;5.70;;
61523;SDS011;47393;38.758;-9.164;2023-03-04T01:33:15;8.80;;;6.78;;
61523;SDS011;47393;38.758;-9.164;2023-03-04T01:35:16;11.75;;;7.05;;
61523;SDS011;47393;38.758;-9.164;2023-03-04T01:37:18;13.07;;;6.72;;
61523;SDS011;47393;38.758;-9.164;2023-03-04T01:39:20;15.55;;;7.10;;
61523;SDS011;47393;38.758;-9.164;2023-03-04T01:41:24;16.15;;;7.03;;
61523;SDS011;47393;38.758;-9.164;2023-03-04T01:43:26;17.52;;;7.55;;
61523;SDS011;47393;38.758;-9.164;2023-03-04T01:45:28;17.48;;;7.90;;
61523;SDS011;47393;38.758;-9.164;2023-03-04T01:47:30;22.75;;;7.50;;
61523;SDS011;47393;38.758;-9.164;2023-03-04T01:49:35;26.27;;;7.57;;
61523;SDS011;47393;38.758;-9.164;2023-03-04T01:51:41;17.50;;;7.53;;
61523;SDS011;47393;38.758;-9.164;2023-03-04T01:53:46;7.97;;;7.22;;
61523;SDS011;47393;38.758;-9.164;2023-03-04T01:55:59;18.30;;;7.70;;
61523;SDS011;47393;38.758;-9.164;2023-03-04T01:58:14;12.70;;;6.90;;
61523;SDS011;47393;38.758;-9.164;2023-03-04T02:05:25;12.73;;;7.07;;
61523;SDS011;47393;38.758;-9.164;2023-03-04T02:07:33;9.73;;;7.97;;
61523;SDS011;47393;38.758;-9.164;2023-03-04T02:09:44;8.23;;;6.43;;
61523;SDS011;47393;38.758;-9.164;2023-03-04T02:11:51;13.40;;;7.63;;
61523;SDS011;47393;38.758;-9.164;2023-03-04T02:13:52;10.23;;;7.70;;
61523;SDS011;47393;38.758;-9.164;2023-03-04T02:15:56;19.77;;;7.38;;
61523;SDS011;47393;38.758;-9.164;2023-03-04T02:17:57;19.92;;;8.50;;
61523;SDS011;47393;38.758;-9.164;2023-03-04T02:22:14;23.42;;;8.40;;
61523;SDS011;47393;38.758;-9.164;2023-03-04T02:24:34;20.13;;;7.95;;
61523;SDS011;47393;38.758;-9.164;2023-03-04T02:26:39;11.57;;;6.20;;
61523;SDS011;47393;38.758;-9.164;2023-03-04T02:28:45;18.90;;;6.28;;
61523;SDS011;47393;38.758;-9.164;2023-03-04T02:30:48;8.70;;;6.18;;
61523;SDS011;47393;38.758;-9.164;2023-03-04T02:32:50;14.95;;;7.22;;
61523;SDS011;47393;38.758;-9.164;2023-03-04T02:34:51;11.10;;;6.18;;
61523;SDS011;47393;38.758;-9.164;2023-03-04T02:36:54;6.95;;;6.30;;
61523;SDS011;47393;38.758;-9.164;2023-03-04T02:39:00;14.13;;;6.80;;
61523;SDS011;47393;38.758;-9.164;2023-03-04T02:41:03;10.20;;;5.60;;
61523;SDS011;47393;38.758;-9.164;2023-03-04T02:43:04;11.60;;;6.88;;
61523;SDS011;47393;38.758;-9.164;2023-03-04T02:45:05;16.98;;;7.97;;
61523;SDS011;47393;38.758;-9.164;2023-03-04T02:47:08;26.60;;;12.30;;
61523;SDS011;47393;38.758;-9.164;2023-03-04T02:49:19;17.42;;;8.30;;
61523;SDS011;47393;38.758;-9.164;2023-03-04T02:51:29;11.35;;;6.72;;
61523;SDS011;47393;38.758;-9.164;2023-03-04T02:53:33;21.67;;;5.80;;
61523;SDS011;47393;38.758;-9.164;2023-03-04T02:55:34;6.63;;;5.88;;
61523;SDS011;47393;38.758;-9.164;2023-03-04T02:57:55;12.13;;;6.80;;
61523;SDS011;47393;38.758;-9.164;2023-03-04T02:59:57;16.65;;;6.90;;
61523;SDS011;47393;38.758;-9.164;2023-03-04T03:02:04;11.77;;;7.18;;
61523;SDS011;47393;38.758;-9.164;2023-03-04T03:04:12;11.27;;;7.05;;
61523;SDS011;47393;38.758;-9.164;2023-03-04T03:06:23;15.15;;;6.68;;
61523;SDS011;47393;38.758;-9.164;2023-03-04T03:08:52;7.60;;;6.43;;
61523;SDS011;47393;38.758;-9.164;2023-03-04T03:10:59;15.43;;;6.40;;
61523;SDS011;47393;38.758;-9.164;2023-03-04T03:13:18;10.73;;;5.15;;
61523;SDS011;47393;38.758;-9.164;2023-03-04T03:15:22;9.52;;;4.80;;
61523;SDS011;47393;38.758;-9.164;2023-03-04T03:17:29;10.65;;;5.93;;
61523;SDS011;47393;38.758;-9.164;2023-03-04T03:19:36;10.15;;;5.75;;
61523;SDS011;47393;38.758;-9.164;2023-03-04T03:21:44;6.80;;;5.60;;
61523;SDS011;47393;38.758;-9.164;2023-03-04T03:35:47;5.40;;;4.95;;
61523;SDS011;47393;38.758;-9.164;2023-03-04T03:38:33;8.85;;;4.55;;
61523;SDS011;47393;38.758;-9.164;2023-03-04T03:40:34;5.63;;;5.10;;
61523;SDS011;47393;38.758;-9.164;2023-03-04T03:42:35;6.32;;;4.93;;
61523;SDS011;47393;38.758;-9.164;2023-03-04T03:44:36;6.00;;;4.78;;
61523;SDS011;47393;38.758;-9.164;2023-03-04T03:46:36;4.95;;;4.50;;
61523;SDS011;47393;38.758;-9.164;2023-03-04T03:48:37;8.25;;;4.90;;
61523;SDS011;47393;38.758;-9.164;2023-03-04T03:50:40;5.55;;;5.13;;
61523;SDS011;47393;38.758;-9.164;2023-03-04T03:52:41;5.78;;;4.45;;
61523;SDS011;47393;38.758;-9.164;2023-03-04T03:54:42;8.00;;;4.63;;
61523;SDS011;47393;38.758;-9.164;2023-03-04T03:56:46;5.45;;;4.95;;
61523;SDS011;47393;38.758;-9.164;2023-03-04T03:58:58;5.38;;;4.95;;
61523;SDS011;47393;38.758;-9.164;2023-03-04T04:01:18;9.30;;;4.85;;
61523;SDS011;47393;38.758;-9.164;2023-03-04T04:03:44;6.82;;;6.10;;
61523;SDS011;47393;38.758;-9.164;2023-03-04T04:08:24;5.60;;;5.10;;
61523;SDS011;47393;38.758;-9.164;2023-03-04T04:10:32;8.55;;;5.70;;
61523;SDS011;47393;38.758;-9.164;2023-03-04T04:12:55;9.57;;;4.78;;
61523;SDS011;47393;38.758;-9.164;2023-03-04T04:15:06;9.43;;;4.80;;
61523;SDS011;47393;38.758;-9.164;2023-03-04T04:17:09;8.80;;;5.35;;
61523;SDS011;47393;38.758;-9.164;2023-03-04T04:19:17;7.50;;;5.45;;
61523;SDS011;47393;38.758;-9.164;2023-03-04T04:21:22;8.88;;;4.93;;
61523;SDS011;47393;38.758;-9.164;2023-03-04T04:23:26;8.07;;;5.55;;
61523;SDS011;47393;38.758;-9.164;2023-03-04T04:25:30;11.48;;;6.05;;
61523;SDS011;47393;38.758;-9.164;2023-03-04T04:27:40;6.43;;;5.68;;
61523;SDS011;47393;38.758;-9.164;2023-03-04T04:30:08;8.48;;;5.80;;
61523;SDS011;47393;38.758;-9.164;2023-03-04T04:34:19;9.25;;;5.22;;
61523;SDS011;47393;38.758;-9.164;2023-03-04T04:36:20;8.38;;;4.65;;
61523;SDS011;47393;38.758;-9.164;2023-03-04T04:38:22;8.38;;;5.25;;
61523;SDS011;47393;38.758;-9.164;2023-03-04T04:40:24;10.00;;;5.72;;
61523;SDS011;47393;38.758;-9.164;2023-03-04T04:42:26;8.13;;;6.22;;
61523;SDS011;47393;38.758;-9.164;2023-03-04T04:44:27;7.80;;;5.78;;
61523;SDS011;47393;38.758;-9.164;2023-03-04T04:46:28;6.30;;;5.68;;
61523;SDS011;47393;38.758;-9.164;2023-03-04T04:48:32;13.10;;;5.32;;
61523;SDS011;47393;38.758;-9.164;2023-03-04T04:50:40;8.10;;;6.00;;
61523;SDS011;47393;38.758;-9.164;2023-03-04T04:52:45;13.57;;;5.90;;
61523;SDS011;47393;38.758;-9.164;2023-03-04T04:54:49;5.35;;;4.95;;
61523;SDS011;47393;38.758;-9.164;2023-03-04T04:56:50;11.88;;;5.95;;
61523;SDS011;47393;38.758;-9.164;2023-03-04T04:58:52;5.85;;;5.35;;
61523;SDS011;47393;38.758;-9.164;2023-03-04T05:01:05;10.43;;;5.30;;
61523;SDS011;47393;38.758;-9.164;2023-03-04T05:03:06;7.43;;;5.57;;
61523;SDS011;47393;38.758;-9.164;2023-03-04T05:05:07;8.65;;;5.57;;
61523;SDS011;47393;38.758;-9.164;2023-03-04T05:07:08;12.20;;;5.90;;
61523;SDS011;47393;38.758;-9.164;2023-03-04T05:09:08;10.48;;;5.80;;
61523;SDS011;47393;38.758;-9.164;2023-03-04T05:11:10;10.93;;;5.68;;
61523;SDS011;47393;38.758;-9.164;2023-03-04T05:13:15;7.45;;;5.20;;
61523;SDS011;47393;38.758;-9.164;2023-03-04T05:15:16;10.02;;;6.03;;
61523;SDS011;47393;38.758;-9.164;2023-03-04T05:17:18;12.00;;;7.95;;
61523;SDS011;47393;38.758;-9.164;2023-03-04T05:19:19;10.18;;;6.72;;
61523;SDS011;47393;38.758;-9.164;2023-03-04T05:21:20;17.38;;;7.53;;
61523;SDS011;47393;38.758;-9.164;2023-03-04T05:23:21;9.18;;;7.72;;
61523;SDS011;47393;38.758;-9.164;2023-03-04T05:25:23;11.30;;;7.05;;
61523;SDS011;47393;38.758;-9.164;2023-03-04T05:27:24;15.75;;;7.75;;
61523;SDS011;47393;38.758;-9.164;2023-03-04T05:29:26;10.48;;;7.43;;
61523;SDS011;47393;38.758;-9.164;2023-03-04T05:31:27;17.52;;;6.50;;
61523;SDS011;47393;38.758;-9.164;2023-03-04T05:33:40;8.02;;;7.05;;
61523;SDS011;47393;38.758;-9.164;2023-03-04T05:35:44;14.93;;;7.65;;
61523;SDS011;47393;38.758;-9.164;2023-03-04T05:38:10;10.65;;;7.07;;
61523;SDS011;47393;38.758;-9.164;2023-03-04T05:40:38;7.22;;;6.53;;
61523;SDS011;47393;38.758;-9.164;2023-03-04T05:42:39;8.48;;;6.38;;
61523;SDS011;47393;38.758;-9.164;2023-03-04T05:44:58;6.07;;;5.68;;
61523;SDS011;47393;38.758;-9.164;2023-03-04T05:47:04;10.85;;;6.10;;
61523;SDS011;47393;38.758;-9.164;2023-03-04T05:51:26;9.88;;;6.25;;
61523;SDS011;47393;38.758;-9.164;2023-03-04T05:53:27;11.30;;;6.40;;
61523;SDS011;47393;38.758;-9.164;2023-03-04T05:55:29;11.23;;;6.10;;
61523;SDS011;47393;38.758;-9.164;2023-03-04T05:57:30;10.63;;;6.30;;
61523;SDS011;47393;38.758;-9.164;2023-03-04T05:59:34;16.73;;;7.70;;
61523;SDS011;47393;38.758;-9.164;2023-03-04T06:01:35;13.98;;;7.38;;
61523;SDS011;47393;38.758;-9.164;2023-03-04T06:03:36;13.25;;;6.55;;
61523;SDS011;47393;38.758;-9.164;2023-03-04T06:05:38;14.73;;;7.70;;
61523;SDS011;47393;38.758;-9.164;2023-03-04T06:07:39;10.07;;;9.15;;
61523;SDS011;47393;38.758;-9.164;2023-03-04T06:09:42;16.13;;;10.75;;
61523;SDS011;47393;38.758;-9.164;2023-03-04T06:11:44;15.90;;;11.73;;
61523;SDS011;47393;38.758;-9.164;2023-03-04T06:13:45;14.82;;;12.27;;
61523;SDS011;47393;38.758;-9.164;2023-03-04T06:15:46;29.75;;;12.85;;
61523;SDS011;47393;38.758;-9.164;2023-03-04T06:17:47;22.70;;;13.45;;
61523;SDS011;47393;38.758;-9.164;2023-03-04T06:19:48;24.10;;;11.85;;
61523;SDS011;47393;38.758;-9.164;2023-03-04T06:21:49;16.75;;;12.52;;
61523;SDS011;47393;38.758;-9.164;2023-03-04T06:23:52;21.85;;;13.02;;
61523;SDS011;47393;38.758;-9.164;2023-03-04T06:25:53;19.52;;;13.70;;
61523;SDS011;47393;38.758;-9.164;2023-03-04T06:27:54;22.58;;;13.55;;
61523;SDS011;47393;38.758;-9.164;2023-03-04T06:29:56;18.58;;;12.93;;
61523;SDS011;47393;38.758;-9.164;2023-03-04T06:31:58;30.90;;;14.38;;
61523;SDS011;47393;38.758;-9.164;2023-03-04T06:33:59;24.63;;;13.77;;
61523;SDS011;47393;38.758;-9.164;2023-03-04T06:36:05;21.70;;;13.57;;
61523;SDS011;47393;38.758;-9.164;2023-03-04T06:38:09;22.58;;;12.30;;
61523;SDS011;47393;38.758;-9.164;2023-03-04T06:40:11;18.50;;;12.50;;
61523;SDS011;47393;38.758;-9.164;2023-03-04T06:42:13;21.88;;;13.07;;
61523;SDS011;47393;38.758;-9.164;2023-03-04T06:44:14;23.83;;;11.82;;
61523;SDS011;47393;38.758;-9.164;2023-03-04T06:46:15;33.13;;;12.68;;
61523;SDS011;47393;38.758;-9.164;2023-03-04T06:48:18;20.65;;;13.65;;
61523;SDS011;47393;38.758;-9.164;2023-03-04T06:50:25;27.52;;;14.15;;
61523;SDS011;47393;38.758;-9.164;2023-03-04T06:52:32;24.52;;;14.07;;
61523;SDS011;47393;38.758;-9.164;2023-03-04T06:54:59;22.42;;;14.85;;
61523;SDS011;47393;38.758;-9.164;2023-03-04T06:57:26;21.50;;;12.57;;
61523;SDS011;47393;38.758;-9.164;2023-03-04T06:59:38;20.83;;;13.10;;
61523;SDS011;47393;38.758;-9.164;2023-03-04T07:01:47;17.95;;;13.55;;
61523;SDS011;47393;38.758;-9.164;2023-03-04T07:03:52;28.95;;;13.55;;
61523;SDS011;47393;38.758;-9.164;2023-03-04T07:06:10;31.40;;;15.15;;
61523;SDS011;47393;38.758;-9.164;2023-03-04T07:08:32;30.10;;;13.88;;
61523;SDS011;47393;38.758;-9.164;2023-03-04T07:10:59;24.00;;;13.18;;
61523;SDS011;47393;38.758;-9.164;2023-03-04T07:13:24;36.50;;;14.88;;
61523;SDS011;47393;38.758;-9.164;2023-03-04T07:15:38;17.25;;;13.07;;
61523;SDS011;47393;38.758;-9.164;2023-03-04T07:17:39;27.42;;;14.40;;
61523;SDS011;47393;38.758;-9.164;2023-03-04T07:19:43;23.33;;;14.68;;
61523;SDS011;47393;38.758;-9.164;2023-03-04T07:21:45;20.63;;;13.48;;
61523;SDS011;47393;38.758;-9.164;2023-03-04T07:23:54;18.33;;;13.43;;
61523;SDS011;47393;38.758;-9.164;2023-03-04T07:26:01;20.40;;;13.52;;
61523;SDS011;47393;38.758;-9.164;2023-03-04T07:30:17;26.50;;;13.70;;
61523;SDS011;47393;38.758;-9.164;2023-03-04T07:32:18;23.85;;;14.00;;
61523;SDS011;47393;38.758;-9.164;2023-03-04T07:34:29;24.02;;;14.00;;
61523;SDS011;47393;38.758;-9.164;2023-03-04T07:36:38;18.33;;;12.88;;
61523;SDS011;47393;38.758;-9.164;2023-03-04T07:38:48;15.73;;;12.23;;
61523;SDS011;47393;38.758;-9.164;2023-03-04T07:41:06;20.17;;;12.80;;
61523;SDS011;47393;38.758;-9.164;2023-03-04T07:43:09;16.42;;;10.93;;
61523;SDS011;47393;38.758;-9.164;2023-03-04T07:45:13;16.73;;;11.85;;
61523;SDS011;47393;38.758;-9.164;2023-03-04T07:47:18;15.50;;;10.88;;
61523;SDS011;47393;38.758;-9.164;2023-03-04T07:49:21;13.30;;;10.93;;
61523;SDS011;47393;38.758;-9.164;2023-03-04T07:51:28;18.30;;;10.02;;
61523;SDS011;47393;38.758;-9.164;2023-03-04T07:53:40;17.88;;;9.25;;
61523;SDS011;47393;38.758;-9.164;2023-03-04T07:55:41;16.77;;;9.88;;
61523;SDS011;47393;38.758;-9.164;2023-03-04T07:57:46;18.25;;;9.65;;
61523;SDS011;47393;38.758;-9.164;2023-03-04T07:59:55;18.23;;;8.80;;
61523;SDS011;47393;38.758;-9.164;2023-03-04T08:02:27;16.17;;;8.15;;
61523;SDS011;47393;38.758;-9.164;2023-03-04T08:04:41;12.65;;;8.43;;
61523;SDS011;47393;38.758;-9.164;2023-03-04T08:06:58;13.05;;;8.57;;
61523;SDS011;47393;38.758;-9.164;2023-03-04T08:09:01;14.35;;;9.07;;
61523;SDS011;47393;38.758;-9.164;2023-03-04T08:11:07;11.63;;;8.07;;
61523;SDS011;47393;38.758;-9.164;2023-03-04T08:13:09;10.90;;;7.30;;
61523;SDS011;47393;38.758;-9.164;2023-03-04T08:15:10;17.02;;;8.43;;
61523;SDS011;47393;38.758;-9.164;2023-03-04T08:17:12;20.00;;;8.32;;
61523;SDS011;47393;38.758;-9.164;2023-03-04T08:19:14;14.43;;;7.88;;
61523;SDS011;47393;38.758;-9.164;2023-03-04T08:21:16;19.88;;;7.82;;
61523;SDS011;47393;38.758;-9.164;2023-03-04T08:23:19;14.98;;;8.00;;
61523;SDS011;47393;38.758;-9.164;2023-03-04T08:25:20;16.13;;;7.55;;
61523;SDS011;47393;38.758;-9.164;2023-03-04T08:27:22;16.33;;;7.60;;
61523;SDS011;47393;38.758;-9.164;2023-03-04T08:29:24;12.77;;;7.18;;
61523;SDS011;47393;38.758;-9.164;2023-03-04T08:31:34;11.32;;;6.97;;
61523;SDS011;47393;38.758;-9.164;2023-03-04T08:33:41;8.30;;;6.95;;
61523;SDS011;47393;38.758;-9.164;2023-03-04T08:35:43;17.15;;;7.38;;
61523;SDS011;47393;38.758;-9.164;2023-03-04T08:37:44;13.05;;;7.30;;
61523;SDS011;47393;38.758;-9.164;2023-03-04T08:39:45;12.00;;;7.10;;
61523;SDS011;47393;38.758;-9.164;2023-03-04T08:41:46;13.05;;;7.50;;
61523;SDS011;47393;38.758;-9.164;2023-03-04T08:43:50;13.73;;;8.15;;
61523;SDS011;47393;38.758;-9.164;2023-03-04T08:45:51;14.18;;;7.13;;
61523;SDS011;47393;38.758;-9.164;2023-03-04T08:47:52;11.45;;;7.70;;
61523;SDS011;47393;38.758;-9.164;2023-03-04T08:49:53;15.88;;;7.93;;
61523;SDS011;47393;38.758;-9.164;2023-03-04T08:51:54;15.15;;;8.00;;
61523;SDS011;47393;38.758;-9.164;2023-03-04T08:53:58;10.68;;;8.52;;
61523;SDS011;47393;38.758;-9.164;2023-03-04T08:56:08;10.93;;;8.20;;
61523;SDS011;47393;38.758;-9.164;2023-03-04T09:00:24;12.10;;;6.95;;
61523;SDS011;47393;38.758;-9.164;2023-03-04T09:02:27;17.75;;;7.57;;
61523;SDS011;47393;38.758;-9.164;2023-03-04T09:04:28;12.52;;;7.55;;
61523;SDS011;47393;38.758;-9.164;2023-03-04T09:06:44;10.20;;;6.85;;
61523;SDS011;47393;38.758;-9.164;2023-03-04T09:08:48;11.35;;;6.43;;
61523;SDS011;47393;38.758;-9.164;2023-03-04T09:10:52;13.02;;;6.97;;
61523;SDS011;47393;38.758;-9.164;2023-03-04T09:13:09;9.30;;;6.38;;
61523;SDS011;47393;38.758;-9.164;2023-03-04T09:15:27;8.30;;;7.25;;
61523;SDS011;47393;38.758;-9.164;2023-03-04T09:19:57;14.85;;;7.72;;
61523;SDS011;47393;38.758;-9.164;2023-03-04T09:22:08;10.80;;;7.30;;
61523;SDS011;47393;38.758;-9.164;2023-03-04T09:24:10;12.20;;;7.35;;
61523;SDS011;47393;38.758;-9.164;2023-03-04T09:26:20;13.40;;;7.05;;
61523;SDS011;47393;38.758;-9.164;2023-03-04T09:28:22;19.80;;;7.53;;
61523;SDS011;47393;38.758;-9.164;2023-03-04T09:30:23;25.75;;;7.10;;
61523;SDS011;47393;38.758;-9.164;2023-03-04T09:32:24;22.00;;;8.25;;
61523;SDS011;47393;38.758;-9.164;2023-03-04T09:34:25;15.02;;;7.68;;
61523;SDS011;47393;38.758;-9.164;2023-03-04T09:36:26;20.35;;;8.60;;
61523;SDS011;47393;38.758;-9.164;2023-03-04T09:38:27;16.88;;;8.50;;
61523;SDS011;47393;38.758;-9.164;2023-03-04T09:40:45;24.70;;;8.38;;
61523;SDS011;47393;38.758;-9.164;2023-03-04T09:42:55;31.70;;;9.95;;
61523;SDS011;47393;38.758;-9.164;2023-03-04T09:47:54;14.73;;;9.68;;
61523;SDS011;47393;38.758;-9.164;2023-03-04T09:50:18;13.77;;;9.07;;
61523;SDS011;47393;38.758;-9.164;2023-03-04T10:11:06;20.55;;;11.52;;
61523;SDS011;47393;38.758;-9.164;2023-03-04T10:22:52;21.10;;;10.80;;
61523;SDS011;47393;38.758;-9.164;2023-03-04T10:24:57;26.35;;;11.73;;
61523;SDS011;47393;38.758;-9.164;2023-03-04T10:27:05;35.00;;;12.05;;
61523;SDS011;47393;38.758;-9.164;2023-03-04T10:29:30;20.15;;;11.63;;
61523;SDS011;47393;38.758;-9.164;2023-03-04T10:31:48;15.13;;;11.65;;
61523;SDS011;47393;38.758;-9.164;2023-03-04T10:33:55;24.42;;;9.57;;
61523;SDS011;47393;38.758;-9.164;2023-03-04T11:01:53;10.65;;;9.48;;
61523;SDS011;47393;38.758;-9.164;2023-03-04T11:04:14;18.25;;;11.13;;
61523;SDS011;47393;38.758;-9.164;2023-03-04T11:06:28;23.23;;;11.35;;
61523;SDS011;47393;38.758;-9.164;2023-03-04T11:26:01;21.48;;;11.98;;
61523;SDS011;47393;38.758;-9.164;2023-03-04T11:28:13;16.08;;;11.63;;
61523;SDS011;47393;38.758;-9.164;2023-03-04T11:35:22;17.50;;;11.52;;
61523;SDS011;47393;38.758;-9.164;2023-03-04T11:49:59;19.90;;;11.45;;
61523;SDS011;47393;38.758;-9.164;2023-03-04T12:05:10;22.02;;;11.88;;
61523;SDS011;47393;38.758;-9.164;2023-03-04T12:14:07;33.10;;;15.48;;
61523;SDS011;47393;38.758;-9.164;2023-03-04T12:24:46;24.85;;;13.65;;
61523;SDS011;47393;38.758;-9.164;2023-03-04T12:39:38;27.13;;;14.13;;
61523;SDS011;47393;38.758;-9.164;2023-03-04T12:41:55;31.23;;;14.90;;
61523;SDS011;47393;38.758;-9.164;2023-03-04T12:44:15;25.48;;;14.65;;
61523;SDS011;47393;38.758;-9.164;2023-03-04T12:46:30;31.02;;;14.23;;
61523;SDS011;47393;38.758;-9.164;2023-03-04T12:54:55;22.85;;;13.80;;
61523;SDS011;47393;38.758;-9.164;2023-03-04T12:57:16;28.23;;;12.05;;
61523;SDS011;47393;38.758;-9.164;2023-03-04T13:07:40;21.65;;;11.35;;
61523;SDS011;47393;38.758;-9.164;2023-03-04T13:13:36;22.67;;;12.02;;
61523;SDS011;47393;38.758;-9.164;2023-03-04T13:17:58;24.65;;;12.73;;
61523;SDS011;47393;38.758;-9.164;2023-03-04T13:24:47;21.35;;;13.60;;
61523;SDS011;47393;38.758;-9.164;2023-03-04T13:32:38;20.60;;;14.02;;
61523;SDS011;47393;38.758;-9.164;2023-03-04T13:37:30;33.05;;;15.00;;
61523;SDS011;47393;38.758;-9.164;2023-03-04T13:39:34;22.48;;;13.80;;
61523;SDS011;47393;38.758;-9.164;2023-03-04T13:41:51;22.80;;;13.68;;
61523;SDS011;47393;38.758;-9.164;2023-03-04T13:43:57;30.30;;;15.43;;
61523;SDS011;47393;38.758;-9.164;2023-03-04T13:48:30;21.77;;;13.73;;
61523;SDS011;47393;38.758;-9.164;2023-03-04T13:50:34;23.42;;;14.35;;
61523;SDS011;47393;38.758;-9.164;2023-03-04T13:52:45;29.58;;;14.88;;
61523;SDS011;47393;38.758;-9.164;2023-03-04T13:55:28;28.27;;;14.02;;
61523;SDS011;47393;38.758;-9.164;2023-03-04T13:57:20;19.40;;;13.82;;
61523;SDS011;47393;38.758;-9.164;2023-03-04T14:03:42;18.50;;;12.27;;
61523;SDS011;47393;38.758;-9.164;2023-03-04T14:08:18;19.08;;;11.90;;
61523;SDS011;47393;38.758;-9.164;2023-03-04T14:10:23;27.38;;;11.95;;
61523;SDS011;47393;38.758;-9.164;2023-03-04T14:25:14;14.88;;;10.68;;
61523;SDS011;47393;38.758;-9.164;2023-03-04T14:27:35;23.10;;;11.55;;
61523;SDS011;47393;38.758;-9.164;2023-03-04T14:29:41;18.58;;;10.20;;
61523;SDS011;47393;38.758;-9.164;2023-03-04T14:32:09;21.65;;;12.02;;
61523;SDS011;47393;38.758;-9.164;2023-03-04T14:36:50;16.58;;;10.80;;
61523;SDS011;47393;38.758;-9.164;2023-03-04T14:38:53;23.88;;;12.65;;
61523;SDS011;47393;38.758;-9.164;2023-03-04T14:43:03;23.15;;;11.52;;
61523;SDS011;47393;38.758;-9.164;2023-03-04T14:45:09;18.35;;;11.63;;
61523;SDS011;47393;38.758;-9.164;2023-03-04T14:49:14;22.08;;;12.73;;
61523;SDS011;47393;38.758;-9.164;2023-03-04T14:53:35;23.60;;;12.20;;
61523;SDS011;47393;38.758;-9.164;2023-03-04T14:55:35;20.98;;;11.82;;
61523;SDS011;47393;38.758;-9.164;2023-03-04T14:57:50;26.38;;;12.30;;
61523;SDS011;47393;38.758;-9.164;2023-03-04T15:02:23;32.33;;;12.50;;
61523;SDS011;47393;38.758;-9.164;2023-03-04T15:04:50;19.02;;;11.73;;
61523;SDS011;47393;38.758;-9.164;2023-03-04T15:06:58;19.73;;;12.52;;
61523;SDS011;47393;38.758;-9.164;2023-03-04T15:09:26;20.30;;;12.80;;
61523;SDS011;47393;38.758;-9.164;2023-03-04T15:12:21;27.50;;;13.52;;
61523;SDS011;47393;38.758;-9.164;2023-03-04T15:16:52;27.00;;;14.57;;
61523;SDS011;47393;38.758;-9.164;2023-03-04T15:18:57;29.40;;;13.15;;
61523;SDS011;47393;38.758;-9.164;2023-03-04T15:21:02;27.92;;;15.40;;
61523;SDS011;47393;38.758;-9.164;2023-03-04T15:23:03;19.20;;;11.98;;
61523;SDS011;47393;38.758;-9.164;2023-03-04T15:25:07;19.35;;;13.18;;
61523;SDS011;47393;38.758;-9.164;2023-03-04T15:27:11;29.92;;;13.38;;
61523;SDS011;47393;38.758;-9.164;2023-03-04T15:29:17;20.60;;;12.93;;
61523;SDS011;47393;38.758;-9.164;2023-03-04T15:31:24;27.88;;;12.82;;
61523;SDS011;47393;38.758;-9.164;2023-03-04T15:33:28;21.95;;;13.02;;
61523;SDS011;47393;38.758;-9.164;2023-03-04T15:35:37;15.27;;;12.50;;
61523;SDS011;47393;38.758;-9.164;2023-03-04T15:37:42;27.38;;;14.18;;
61523;SDS011;47393;38.758;-9.164;2023-03-04T15:39:52;21.08;;;12.68;;
61523;SDS011;47393;38.758;-9.164;2023-03-04T15:41:54;20.77;;;12.30;;
61523;SDS011;47393;38.758;-9.164;2023-03-04T15:43:55;26.90;;;13.30;;
61523;SDS011;47393;38.758;-9.164;2023-03-04T15:45:56;31.65;;;13.55;;
61523;SDS011;47393;38.758;-9.164;2023-03-04T15:47:59;25.48;;;12.80;;
61523;SDS011;47393;38.758;-9.164;2023-03-04T15:50:00;26.15;;;13.40;;
61523;SDS011;47393;38.758;-9.164;2023-03-04T15:52:04;35.35;;;13.75;;
61523;SDS011;47393;38.758;-9.164;2023-03-04T15:54:06;24.70;;;13.18;;
61523;SDS011;47393;38.758;-9.164;2023-03-04T15:56:13;22.52;;;12.65;;
61523;SDS011;47393;38.758;-9.164;2023-03-04T15:58:14;25.17;;;12.20;;
61523;SDS011;47393;38.758;-9.164;2023-03-04T16:00:15;22.73;;;13.70;;
61523;SDS011;47393;38.758;-9.164;2023-03-04T16:02:19;22.42;;;13.65;;
61523;SDS011;47393;38.758;-9.164;2023-03-04T16:04:20;35.25;;;14.30;;
61523;SDS011;47393;38.758;-9.164;2023-03-04T16:06:23;33.13;;;13.93;;
61523;SDS011;47393;38.758;-9.164;2023-03-04T16:08:25;22.80;;;13.30;;
61523;SDS011;47393;38.758;-9.164;2023-03-04T16:10:26;29.25;;;14.15;;
61523;SDS011;47393;38.758;-9.164;2023-03-04T16:12:30;23.40;;;13.20;;
61523;SDS011;47393;38.758;-9.164;2023-03-04T16:14:32;34.53;;;14.95;;